Time;durP1;ratioP1;P1;durP2;ratioP2;P2;SDS_P1;SDS_P2;PMS_P1;PMS_P2;Temp;Humidity;BMP_temperature;BMP_pressure;BME280_temperature;BME280_humidity;BME280_pressure;Samples;Min_cycle;Max_cycle;Signal;HPM_P1;HPM_P2
2023/10/07 00:00:38;;;;;;;6.70;3.75;;;;;;;15.32;81.33;101959.53;3615709;39;20264;-65
2023/10/07 00:03:06;;;;;;;7.32;3.97;;;;;;;15.24;81.97;101948.28;3614951;39;20429;-65
2023/10/07 00:05:35;;;;;;;7.97;3.72;;;;;;;15.14;82.07;101937.19;3614147;39;20384;-66
2023/10/07 00:08:12;;;;;;;8.73;4.13;;;;;;;15.27;82.00;101954.38;3616895;39;20039;-67
2023/10/07 00:10:40;;;;;;;6.57;3.55;;;;;;;15.30;82.22;101931.66;3610855;39;20054;-67
2023/10/07 00:13:10;;;;;;;9.15;3.70;;;;;;;15.30;81.97;101931.66;3614900;39;20053;-66
2023/10/07 00:15:43;;;;;;;10.38;4.20;;;;;;;15.30;82.13;101918.09;3615715;39;20127;-67
2023/10/07 00:18:12;;;;;;;8.57;4.00;;;;;;;15.29;82.02;101924.50;3614951;39;20118;-66
2023/10/07 00:20:56;;;;;;;8.05;3.83;;;;;;;15.28;82.58;101933.56;3614570;39;20043;-67
2023/10/07 00:23:26;;;;;;;10.00;3.92;;;;;;;15.24;82.70;101937.47;3614505;39;20291;-68
2023/10/07 00:25:54;;;;;;;8.88;4.03;;;;;;;15.23;82.43;101939.31;3615378;39;20108;-68
2023/10/07 00:28:32;;;;;;;10.07;4.50;;;;;;;15.19;82.77;101937.75;3604347;39;20519;-67
2023/10/07 00:31:13;;;;;;;7.28;3.65;;;;;;;15.19;83.27;101931.44;3613565;39;20123;-67
2023/10/07 00:34:02;;;;;;;8.90;3.92;;;;;;;15.18;83.30;101921.59;3617095;39;20067;-67
2023/10/07 00:39:00;;;;;;;7.65;4.20;;;;;;;15.17;84.15;101930.69;3612639;39;20081;-65
2023/10/07 00:41:31;;;;;;;11.13;4.60;;;;;;;15.18;83.81;101929.72;3615990;39;20051;-66
2023/10/07 00:44:15;;;;;;;8.30;4.53;;;;;;;15.15;84.36;101925.38;3615326;39;20101;-66
2023/10/07 00:46:41;;;;;;;10.88;4.80;;;;;;;15.11;84.04;101926.53;3612797;39;20360;-67
2023/10/07 00:49:16;;;;;;;8.98;4.57;;;;;;;15.19;84.56;101929.66;3613081;39;20050;-67
2023/10/07 00:51:46;;;;;;;9.23;4.70;;;;;;;15.04;84.26;101917.94;3615213;39;20298;-67
2023/10/07 00:54:19;;;;;;;7.72;4.90;;;;;;;15.16;84.47;101935.25;3615094;39;20051;-67
2023/10/07 00:57:04;;;;;;;11.27;4.90;;;;;;;15.15;85.08;101932.63;3615076;39;20051;-66
2023/10/07 00:59:31;;;;;;;8.90;5.05;;;;;;;15.12;85.00;101928.25;3613932;39;20051;-67
2023/10/07 01:01:59;;;;;;;7.55;5.00;;;;;;;15.14;85.49;101920.06;3613851;39;20051;-67
2023/10/07 01:04:27;;;;;;;10.50;5.07;;;;;;;15.13;85.24;101918.28;3615362;39;20051;-68
2023/10/07 01:07:02;;;;;;;8.45;5.22;;;;;;;15.12;85.74;101917.44;3615638;39;20050;-66
2023/10/07 01:09:29;;;;;;;9.10;4.90;;;;;;;15.12;85.52;101903.03;3615421;39;20069;-67
2023/10/07 01:11:57;;;;;;;10.50;5.28;;;;;;;15.12;86.19;101909.31;3616485;39;20051;-67
2023/10/07 01:14:26;;;;;;;13.68;5.60;;;;;;;15.13;86.33;101896.63;3616076;39;20043;-67
2023/10/07 01:16:53;;;;;;;8.82;5.43;;;;;;;15.13;86.26;101900.25;3617443;39;20059;-67
2023/10/07 01:19:27;;;;;;;12.32;6.03;;;;;;;15.11;86.69;101898.59;3617081;39;20073;-67
2023/10/07 01:22:17;;;;;;;10.65;5.60;;;;;;;15.12;86.35;101917.44;3616166;39;20059;-67
2023/10/07 01:24:49;;;;;;;9.43;5.38;;;;;;;15.13;87.03;101923.72;3617161;39;20094;-67
2023/10/07 01:29:59;;;;;;;15.75;6.63;;;;;;;15.14;86.81;101930.91;3617509;39;20042;-67
2023/10/07 01:32:33;;;;;;;10.85;5.20;;;;;;;15.12;86.89;101916.56;3615940;39;20290;-67
2023/10/07 01:35:05;;;;;;;10.45;5.68;;;;;;;15.11;87.62;101928.38;3617438;39;20059;-67
2023/10/07 01:37:42;;;;;;;9.60;5.93;;;;;;;15.09;87.18;101921.19;3617340;39;20065;-67
2023/10/07 01:40:15;;;;;;;10.85;5.97;;;;;;;15.08;87.44;101919.47;3607874;39;20059;-68
2023/10/07 01:42:45;;;;;;;8.82;5.43;;;;;;;15.09;87.75;101912.22;3615631;39;20047;-66
2023/10/07 01:45:20;;;;;;;12.68;6.10;;;;;;;15.08;87.79;101916.75;3605327;39;20382;-67
2023/10/07 01:47:55;;;;;;;9.80;6.18;;;;;;;15.08;88.11;101903.22;3616717;39;20047;-67
2023/10/07 01:50:24;;;;;;;10.93;6.00;;;;;;;15.00;88.12;101893.84;3615517;39;20051;-67
2023/10/07 01:52:55;;;;;;;12.15;6.88;;;;;;;14.88;87.87;101863.00;3610505;39;20042;-67
2023/10/07 01:55:26;;;;;;;10.60;5.72;;;;;;;15.08;89.10;101903.22;3617541;39;20313;-66
2023/10/07 01:57:52;;;;;;;12.70;6.93;;;;;;;15.08;88.79;101903.22;3621548;39;20058;-66
2023/10/07 02:03:04;;;;;;;11.50;7.00;;;;;;;15.13;89.35;101908.38;3617373;39;20065;-67
2023/10/07 02:05:40;;;;;;;13.00;6.68;;;;;;;15.12;89.77;101900.31;3618039;39;20059;-66
2023/10/07 02:08:11;;;;;;;13.73;7.03;;;;;;;15.18;90.22;101910.75;3616987;39;20103;-67
2023/10/07 02:10:41;;;;;;;16.77;8.15;;;;;;;15.19;89.81;101907.97;3616514;39;20054;-67
2023/10/07 02:13:14;;;;;;;11.85;7.20;;;;;;;15.22;89.71;101907.78;3616769;39;20055;-67
2023/10/07 02:15:44;;;;;;;12.52;7.60;;;;;;;15.26;90.14;101909.31;3616478;39;20054;-67
2023/10/07 02:18:16;;;;;;;14.00;7.93;;;;;;;15.21;90.04;101891.59;3616837;39;20266;-66
2023/10/07 02:20:49;;;;;;;14.20;8.35;;;;;;;15.28;89.78;101892.94;3616823;39;20096;-67
2023/10/07 02:23:22;;;;;;;16.98;8.95;;;;;;;15.29;90.63;101892.00;3613845;39;20138;-66
2023/10/07 02:25:51;;;;;;;16.30;8.65;;;;;;;15.32;90.29;101897.22;3617109;39;20158;-66
2023/10/07 02:28:21;;;;;;;15.57;9.05;;;;;;;15.31;90.43;101899.03;3615123;39;20343;-66
2023/10/07 02:31:02;;;;;;;15.68;9.07;;;;;;;15.34;91.43;101906.09;3616039;39;20346;-66
2023/10/07 02:33:29;;;;;;;14.85;8.32;;;;;;;15.39;90.78;101906.69;3616950;39;20055;-67
2023/10/07 02:35:58;;;;;;;15.75;9.30;;;;;;;15.35;91.12;101886.19;3613818;39;20368;-67
2023/10/07 02:38:28;;;;;;;15.43;9.75;;;;;;;15.33;91.42;101888.97;3617999;39;20086;-67
2023/10/07 02:40:59;;;;;;;16.58;9.43;;;;;;;15.43;91.26;101905.50;3617129;39;20054;-67
2023/10/07 02:43:27;;;;;;;15.73;10.00;;;;;;;15.35;91.34;101886.19;3615027;39;20374;-68
2023/10/07 02:45:53;;;;;;;16.70;10.25;;;;;;;15.49;91.79;101910.53;3615987;39;20110;-67
2023/10/07 02:48:19;;;;;;;18.88;11.00;;;;;;;15.52;91.67;101909.47;3616116;39;20059;-66
2023/10/07 02:50:45;;;;;;;15.25;10.95;;;;;;;15.54;91.74;101908.41;3616048;39;20143;-67
2023/10/07 02:53:14;;;;;;;20.58;11.45;;;;;;;15.52;91.44;101890.50;3614347;39;20050;-67
2023/10/07 02:55:48;;;;;;;17.35;11.27;;;;;;;15.09;91.00;101826.41;3615811;39;20042;-66
2023/10/07 02:58:36;;;;;;;17.02;10.77;;;;;;;15.61;91.69;101906.16;3615303;39;20070;-66
2023/10/07 03:01:25;;;;;;;20.33;11.93;;;;;;;15.61;91.27;101898.00;3617801;39;20083;-67
2023/10/07 03:03:50;;;;;;;18.30;11.77;;;;;;;15.64;91.81;101910.50;3615430;39;20382;-67
2023/10/07 03:06:19;;;;;;;17.38;11.45;;;;;;;15.66;92.13;101920.25;3616032;39;20079;-68
2023/10/07 03:11:20;;;;;;;19.98;12.27;;;;;;;15.65;92.16;101901.38;3615278;39;20313;-66
2023/10/07 03:13:49;;;;;;;18.40;12.38;;;;;;;15.76;91.66;101920.53;3610143;39;20386;-67
2023/10/07 03:18:56;;;;;;;17.70;12.63;;;;;;;15.73;92.06;101897.25;3614198;39;20119;-68
2023/10/07 03:21:42;;;;;;;20.98;12.23;;;;;;;15.66;91.99;101895.00;3617809;39;20062;-67
2023/10/07 03:24:13;;;;;;;22.42;12.27;;;;;;;15.82;92.24;101922.84;3615035;39;20408;-67
2023/10/07 03:26:43;;;;;;;18.23;12.23;;;;;;;15.83;92.77;101907.47;3617246;39;20105;-66
2023/10/07 03:29:09;;;;;;;18.92;12.10;;;;;;;15.86;91.95;101901.81;3613974;39;20116;-66
2023/10/07 03:31:47;;;;;;;19.92;12.23;;;;;;;15.86;92.76;101901.81;3615975;39;20047;-68
2023/10/07 03:34:14;;;;;;;17.90;13.27;;;;;;;15.87;92.57;101895.44;3614402;39;20074;-67
2023/10/07 03:41:59;;;;;;;22.00;13.15;;;;;;;15.92;92.39;101899.59;3614338;39;20059;-66
2023/10/07 03:44:25;;;;;;;20.35;14.10;;;;;;;15.95;92.52;101898.50;3614044;39;20055;-67
2023/10/07 03:46:54;;;;;;;19.63;13.65;;;;;;;15.96;92.74;101901.13;3606610;39;20413;-67
2023/10/07 03:49:22;;;;;;;23.15;14.45;;;;;;;15.99;92.69;101890.06;3614924;39;20112;-67
2023/10/07 03:51:58;;;;;;;21.90;14.15;;;;;;;16.00;92.54;101883.66;3615673;39;20053;-66
2023/10/07 03:54:29;;;;;;;22.48;13.73;;;;;;;16.02;92.41;101876.28;3615104;39;20058;-67
2023/10/07 03:56:56;;;;;;;20.70;13.48;;;;;;;15.67;92.86;101818.19;3616269;39;20054;-67
2023/10/07 03:59:23;;;;;;;18.50;13.73;;;;;;;16.05;92.66;101879.75;3619148;39;20111;-67
2023/10/07 04:01:53;;;;;;;19.70;13.63;;;;;;;16.06;92.79;101881.50;3613881;39;20075;-68
2023/10/07 04:04:22;;;;;;;23.42;14.82;;;;;;;16.06;93.02;101881.50;3614887;39;20054;-67
2023/10/07 04:06:48;;;;;;;18.70;13.65;;;;;;;15.98;93.04;101858.50;3613025;39;20065;-67
2023/10/07 04:09:14;;;;;;;23.02;14.05;;;;;;;16.05;92.89;101860.75;3615607;39;20066;-67
2023/10/07 04:11:48;;;;;;;19.80;14.70;;;;;;;15.76;92.99;101810.28;3614918;39;20059;-68
2023/10/07 04:14:28;;;;;;;20.92;14.07;;;;;;;16.06;93.18;101862.53;3616496;39;20149;-68
2023/10/07 04:17:11;;;;;;;19.63;15.15;;;;;;;15.90;92.90;101832.88;3615117;39;20047;-68
2023/10/07 04:19:42;;;;;;;19.73;14.55;;;;;;;16.05;93.37;101864.38;3614314;39;20051;-67
2023/10/07 04:22:11;;;;;;;21.85;14.63;;;;;;;15.90;93.34;101833.75;3613012;39;20047;-67
2023/10/07 04:24:43;;;;;;;21.15;13.73;;;;;;;15.96;93.03;101848.72;3618315;39;20087;-68
2023/10/07 04:27:18;;;;;;;19.65;13.65;;;;;;;16.07;93.79;101875.09;3613063;39;20054;-67
2023/10/07 04:29:46;;;;;;;18.65;12.73;;;;;;;16.07;92.82;101862.41;3613860;39;20051;-68
2023/10/07 04:32:20;;;;;;;16.60;12.27;;;;;;;16.05;92.78;101858.06;3615916;39;20462;-68
2023/10/07 04:35:06;;;;;;;21.60;13.23;;;;;;;16.05;93.02;101866.19;3617200;39;20104;-68
2023/10/07 04:37:51;;;;;;;18.00;12.63;;;;;;;16.09;93.34;101879.47;3615854;39;20100;-68
2023/10/07 04:45:37;;;;;;;20.77;11.70;;;;;;;16.11;92.91;101882.03;3615934;39;20110;-68
2023/10/07 04:48:24;;;;;;;17.88;11.05;;;;;;;16.13;92.69;101893.69;3609240;39;20114;-68
2023/10/07 04:51:03;;;;;;;19.25;11.07;;;;;;;16.12;92.40;101886.53;3614404;39;20134;-68
2023/10/07 04:53:43;;;;;;;16.77;11.27;;;;;;;16.11;93.21;101890.19;3614262;39;20077;-67
2023/10/07 04:56:20;;;;;;;18.90;11.35;;;;;;;15.90;92.83;101852.72;3619439;39;20058;-67
2023/10/07 04:58:46;;;;;;;13.02;9.80;;;;;;;16.11;92.54;101890.19;3615885;39;20331;-67
2023/10/07 05:03:58;;;;;;;19.35;11.23;;;;;;;16.12;92.29;101886.53;3614243;39;20134;-68
2023/10/07 05:06:28;;;;;;;15.48;10.48;;;;;;;16.11;92.58;101890.19;3618711;39;20057;-68
2023/10/07 05:08:54;;;;;;;13.48;9.75;;;;;;;16.10;92.48;101880.31;3618842;39;20051;-67
2023/10/07 05:11:19;;;;;;;17.60;10.13;;;;;;;16.12;92.67;101886.53;3617884;39;20061;-67
2023/10/07 05:13:46;;;;;;;15.60;9.48;;;;;;;16.07;92.08;101885.94;3613337;39;20051;-69
2023/10/07 05:16:14;;;;;;;15.07;9.73;;;;;;;16.05;92.47;101874.31;3615404;39;20070;-67
2023/10/07 05:18:41;;;;;;;15.95;9.50;;;;;;;16.07;92.05;101885.94;3613590;39;20065;-67
2023/10/07 05:21:08;;;;;;;13.18;9.02;;;;;;;16.10;92.19;101883.03;3612683;39;20562;-68
2023/10/07 05:23:36;;;;;;;16.92;9.35;;;;;;;16.13;92.84;101882.81;3617872;39;20382;-68
2023/10/07 05:26:03;;;;;;;13.35;8.52;;;;;;;16.07;92.53;101877.81;3620886;39;20077;-68
2023/10/07 05:28:33;;;;;;;13.65;8.90;;;;;;;16.16;92.28;101893.47;3615071;39;20057;-67
2023/10/07 05:31:03;;;;;;;12.40;8.63;;;;;;;15.70;91.94;101824.25;3620951;39;20049;-67
2023/10/07 05:33:34;;;;;;;15.55;8.52;;;;;;;16.12;92.58;101867.53;3618151;39;20050;-67
2023/10/07 05:36:14;;;;;;;12.85;8.18;;;;;;;16.18;91.88;101875.25;3621241;39;20049;-67
2023/10/07 05:38:50;;;;;;;14.98;8.98;;;;;;;16.20;92.02;101870.56;3615852;39;20460;-67
2023/10/07 05:41:16;;;;;;;21.25;8.63;;;;;;;16.21;91.99;101869.63;3620612;39;20546;-68
2023/10/07 05:43:48;;;;;;;16.10;8.95;;;;;;;15.86;92.40;101823.19;3617746;39;20075;-67
2023/10/07 05:46:19;;;;;;;14.88;7.90;;;;;;;16.23;91.95;101878.50;3616163;39;20063;-68
2023/10/07 05:48:46;;;;;;;14.88;8.45;;;;;;;16.23;92.04;101883.94;3615213;39;20051;-67
2023/10/07 05:51:12;;;;;;;17.45;8.82;;;;;;;16.20;91.83;101879.56;3616027;39;20090;-68
2023/10/07 05:53:42;;;;;;;15.05;8.20;;;;;;;16.22;91.90;101887.63;3616494;39;20058;-67
2023/10/07 05:56:09;;;;;;;14.70;8.15;;;;;;;16.22;92.03;101887.63;3618313;39;20480;-68
2023/10/07 05:58:39;;;;;;;16.15;8.80;;;;;;;16.19;91.51;101876.97;3619410;39;20054;-68
2023/10/07 06:01:08;;;;;;;15.73;8.60;;;;;;;16.21;91.68;101877.75;3619868;39;20362;-66
2023/10/07 06:03:34;;;;;;;15.68;8.63;;;;;;;16.25;92.18;101882.00;3616307;39;20091;-67
2023/10/07 06:06:04;;;;;;;14.88;8.35;;;;;;;16.27;91.45;101887.28;3617625;39;20046;-66
2023/10/07 06:08:32;;;;;;;14.65;8.38;;;;;;;16.13;91.66;101871.97;3617111;39;20054;-66
2023/10/07 06:11:00;;;;;;;12.38;7.97;;;;;;;16.28;92.08;101903.47;3614494;39;20495;-66
2023/10/07 06:13:28;;;;;;;12.80;7.65;;;;;;;16.29;91.73;101893.50;3617628;39;20103;-66
2023/10/07 06:15:59;;;;;;;15.40;8.10;;;;;;;16.07;91.46;101859.69;3617525;39;20406;-67
2023/10/07 06:18:26;;;;;;;15.63;8.18;;;;;;;16.32;91.47;101896.00;3614757;39;20055;-66
2023/10/07 06:20:53;;;;;;;15.45;7.68;;;;;;;16.21;91.74;101875.91;3615447;39;20274;-66
2023/10/07 06:23:25;;;;;;;13.80;7.93;;;;;;;16.34;91.74;101894.94;3616563;39;20054;-65
2023/10/07 06:25:52;;;;;;;13.63;8.45;;;;;;;16.35;92.04;101882.22;3613956;39;20057;-66
2023/10/07 06:31:12;;;;;;;14.82;8.38;;;;;;;16.37;91.78;101902.84;3616300;39;20049;-65
2023/10/07 06:33:41;;;;;;;14.10;7.40;;;;;;;16.36;91.36;101908.38;3618762;39;20046;-67
2023/10/07 06:36:10;;;;;;;12.63;7.65;;;;;;;16.30;91.81;101911.50;3619874;39;20123;-66
2023/10/07 06:38:52;;;;;;;14.50;7.85;;;;;;;16.36;90.91;101920.09;3616144;39;20054;-66
2023/10/07 06:41:19;;;;;;;17.05;7.97;;;;;;;16.35;91.75;101921.06;3620534;39;20302;-65
2023/10/07 06:43:49;;;;;;;12.75;7.25;;;;;;;16.25;91.67;101900.97;3610373;39;20086;-66
2023/10/07 06:46:20;;;;;;;14.25;7.65;;;;;;;16.39;91.33;101917.16;3619505;39;20106;-66
2023/10/07 06:48:50;;;;;;;13.85;7.60;;;;;;;16.39;91.52;101906.31;3621523;39;20142;-66
2023/10/07 06:51:16;;;;;;;14.77;7.50;;;;;;;16.35;91.18;101904.78;3614386;39;20167;-65
2023/10/07 06:53:43;;;;;;;11.85;7.65;;;;;;;16.42;91.06;101921.50;3616311;39;20058;-66
2023/10/07 06:56:22;;;;;;;13.15;7.13;;;;;;;16.44;90.94;101928.59;3618845;39;20050;-66
2023/10/07 06:58:53;;;;;;;14.23;7.68;;;;;;;16.47;90.60;101924.78;3618548;39;20069;-66
2023/10/07 07:04:14;;;;;;;12.43;6.90;;;;;;;16.41;90.70;101915.22;3618111;39;20374;-66
2023/10/07 07:06:47;;;;;;;11.82;6.93;;;;;;;16.57;89.89;101936.75;3617056;39;20061;-66
2023/10/07 07:12:04;;;;;;;13.20;6.60;;;;;;;16.55;90.19;101916.09;3615237;39;20404;-66
2023/10/07 07:14:33;;;;;;;12.18;6.43;;;;;;;16.61;90.73;101932.84;3616483;39;20051;-65
2023/10/07 07:20:29;;;;;;;10.40;6.45;;;;;;;16.55;89.93;101927.81;3616740;39;20462;-66
2023/10/07 07:22:46;;;;;;;13.23;6.43;;;;;;;16.72;90.25;101945.69;3614243;39;20405;-65
2023/10/07 07:27:50;;;;;;;15.43;7.38;;;;;;;16.75;89.40;101931.91;3614655;39;20054;-66
2023/10/07 07:30:19;;;;;;;10.65;6.38;;;;;;;16.83;88.91;101959.38;3614927;39;20055;-66
2023/10/07 07:32:55;;;;;;;15.10;6.57;;;;;;;16.86;88.48;101953.75;3616875;39;20079;-65
2023/10/07 07:35:22;;;;;;;12.75;6.70;;;;;;;16.85;89.05;101956.59;3618494;39;20066;-65
2023/10/07 07:37:51;;;;;;;14.93;6.82;;;;;;;16.75;87.98;101929.22;3616408;39;20049;-66
2023/10/07 07:40:36;;;;;;;13.63;7.03;;;;;;;16.82;88.44;101941.38;3615353;39;20043;-66
2023/10/07 07:43:02;;;;;;;14.73;6.60;;;;;;;16.88;87.98;101957.22;3614639;39;20119;-66
2023/10/07 07:45:28;;;;;;;16.25;10.77;;;;;;;16.90;88.02;101949.84;3615506;39;20123;-66
2023/10/07 07:47:54;;;;;;;14.52;7.20;;;;;;;16.94;88.52;101956.81;3615642;39;20053;-66
2023/10/07 07:50:21;;;;;;;14.25;6.00;;;;;;;17.03;88.25;101944.41;3618154;39;20059;-66
2023/10/07 07:52:49;;;;;;;12.35;6.45;;;;;;;17.11;88.47;101950.16;3613112;39;20366;-66
2023/10/07 07:55:18;;;;;;;11.50;6.10;;;;;;;17.21;86.79;101946.78;3613270;39;20294;-66
2023/10/07 07:57:44;;;;;;;11.90;6.60;;;;;;;17.16;86.18;101937.13;3615590;39;20058;-66
2023/10/07 08:00:20;;;;;;;15.40;6.60;;;;;;;16.92;86.14;101898.13;3614158;39;20160;-65
2023/10/07 08:02:48;;;;;;;14.90;6.53;;;;;;;17.23;86.70;101955.72;3614156;39;20300;-65
2023/10/07 08:05:16;;;;;;;12.15;6.00;;;;;;;17.37;85.96;101967.31;3613671;39;20063;-66
2023/10/07 08:07:43;;;;;;;10.45;6.15;;;;;;;17.49;85.18;101962.84;3616944;39;20065;-64
2023/10/07 08:10:11;;;;;;;14.18;6.40;;;;;;;17.63;84.73;101949.09;3615847;39;20080;-65
2023/10/07 08:12:37;;;;;;;8.93;5.78;;;;;;;17.97;83.35;101976.53;3616348;39;20059;-65
2023/10/07 08:17:45;;;;;;;14.23;5.95;;;;;;;18.28;80.48;101977.81;3614151;39;20139;-65
2023/10/07 08:20:12;;;;;;;10.18;5.43;;;;;;;18.48;80.47;101983.59;3614000;39;20065;-64
2023/10/07 08:22:51;;;;;;;12.50;5.50;;;;;;;18.60;78.00;101993.53;3617383;39;20058;-65
2023/10/07 08:28:38;;;;;;;11.15;5.38;;;;;;;18.78;78.12;101983.97;3614005;39;20281;-66
2023/10/07 08:31:13;;;;;;;10.60;5.72;;;;;;;18.89;76.27;101980.41;3615439;39;20057;-65
2023/10/07 08:33:47;;;;;;;11.70;5.68;;;;;;;19.02;75.10;101969.41;3613805;39;20058;-64
2023/10/07 08:36:13;;;;;;;12.43;5.45;;;;;;;19.08;74.58;101966.19;3614450;39;20070;-66
2023/10/07 08:38:44;;;;;;;10.50;5.10;;;;;;;19.13;74.58;101963.97;3614010;39;20067;-65
2023/10/07 08:41:16;;;;;;;11.25;5.55;;;;;;;19.20;75.18;101953.44;3613610;39;21878;-64
2023/10/07 08:43:45;;;;;;;12.57;5.97;;;;;;;19.40;74.16;101982.69;3614546;39;20401;-64
2023/10/07 08:46:19;;;;;;;11.00;5.82;;;;;;;19.46;73.27;101986.78;3616765;39;20091;-64
2023/10/07 08:49:11;;;;;;;11.13;5.38;;;;;;;19.53;73.87;101971.63;3614766;39;20128;-64
2023/10/07 08:51:41;;;;;;;10.30;5.40;;;;;;;19.69;72.76;101977.63;3614838;39;20293;-65
2023/10/07 08:54:17;;;;;;;11.32;5.30;;;;;;;19.80;71.32;101970.41;3615128;39;20055;-64
2023/10/07 08:56:54;;;;;;;10.27;5.05;;;;;;;19.93;71.41;101971.13;3617261;39;20116;-64
2023/10/07 08:59:22;;;;;;;9.27;5.28;;;;;;;20.06;70.90;101962.78;3615271;39;20095;-65
2023/10/07 09:01:57;;;;;;;9.60;5.07;;;;;;;20.16;70.02;101959.13;3613276;39;20050;-65
2023/10/07 09:04:25;;;;;;;14.10;5.30;;;;;;;20.24;69.54;101966.69;3614894;39;20386;-64
2023/10/07 09:06:51;;;;;;;12.95;5.40;;;;;;;20.25;68.58;101968.41;3616866;39;20293;-67
2023/10/07 09:09:38;;;;;;;13.00;5.18;;;;;;;20.24;68.80;101965.84;3618450;39;20054;-65
2023/10/07 09:12:29;;;;;;;8.48;4.82;;;;;;;20.38;68.96;101969.09;3614979;39;20112;-64
2023/10/07 09:14:58;;;;;;;10.07;4.72;;;;;;;20.59;67.49;101955.50;3614343;39;20061;-64
2023/10/07 09:17:26;;;;;;;9.60;5.15;;;;;;;20.67;66.94;101967.63;3616476;39;20474;-64
2023/10/07 09:19:58;;;;;;;10.82;5.15;;;;;;;20.62;65.20;101952.50;3613045;39;20100;-65
2023/10/07 09:22:32;;;;;;;7.95;4.75;;;;;;;20.75;65.79;101962.38;3616983;39;20119;-65
2023/10/07 09:27:56;;;;;;;9.52;4.45;;;;;;;20.89;65.56;101948.38;3614951;39;20086;-65
2023/10/07 09:30:44;;;;;;;9.63;4.78;;;;;;;21.07;65.94;101940.41;3615590;39;20047;-65
2023/10/07 09:33:18;;;;;;;9.52;4.45;;;;;;;21.24;63.74;101956.19;3616813;39;20058;-66
2023/10/07 09:36:35;;;;;;;8.90;4.25;;;;;;;21.33;63.42;101955.34;3615723;39;20247;-65
2023/10/07 09:38:41;;;;;;;10.43;4.82;;;;;;;21.43;62.98;101960.91;3612049;39;20051;-65
2023/10/07 09:43:48;;;;;;;8.65;4.00;;;;;;;21.61;61.58;101955.63;3618260;39;20433;-64
2023/10/07 09:46:24;;;;;;;9.18;4.43;;;;;;;21.70;61.53;101953.94;3616728;39;20085;-64
2023/10/07 09:48:52;;;;;;;9.00;3.92;;;;;;;21.79;61.01;101956.72;3606065;39;20079;-64
2023/10/07 09:51:28;;;;;;;9.00;3.97;;;;;;;21.85;60.40;101958.03;3615255;39;20059;-64
2023/10/07 09:54:47;;;;;;;8.13;4.15;;;;;;;21.87;61.25;101935.97;3614918;39;20062;-64
2023/10/07 09:57:49;;;;;;;10.40;4.47;;;;;;;21.96;60.54;101943.34;3583121;40;20068;-65
2023/10/07 10:00:43;;;;;;;7.85;4.22;;;;;;;22.05;59.81;101938.88;3617403;39;20402;-64
2023/10/07 10:03:59;;;;;;;7.97;3.72;;;;;;;22.18;60.05;101950.44;3615038;39;20335;-65
2023/10/07 10:06:39;;;;;;;10.30;3.97;;;;;;;22.28;59.06;101944.97;3615811;39;20054;-65
2023/10/07 10:09:09;;;;;;;10.10;3.80;;;;;;;22.28;58.82;101944.97;3614449;39;20070;-64
2023/10/07 10:16:45;;;;;;;9.68;4.97;;;;;;;22.48;59.93;101957.66;3615941;39;20050;-65
2023/10/07 10:19:29;;;;;;;7.78;3.58;;;;;;;22.69;58.39;101960.25;3616569;39;20116;-65
2023/10/07 10:22:06;;;;;;;9.23;3.78;;;;;;;22.83;56.32;101968.00;3617150;39;20055;-64
2023/10/07 10:24:44;;;;;;;7.32;3.50;;;;;;;22.86;56.58;101964.94;3617190;39;20117;-64
2023/10/07 10:27:13;;;;;;;8.68;3.60;;;;;;;23.03;56.53;101978.97;3618316;39;20063;-64
2023/10/07 10:29:55;;;;;;;5.97;3.50;;;;;;;23.11;55.02;101970.84;3619304;39;20174;-64
2023/10/07 10:32:29;;;;;;;7.20;3.55;;;;;;;23.25;54.64;101984.09;3607464;39;20080;-65
2023/10/07 10:35:00;;;;;;;8.32;3.47;;;;;;;23.34;54.36;101983.22;3614585;39;20279;-64
2023/10/07 10:37:30;;;;;;;7.38;3.35;;;;;;;23.42;54.83;101974.22;3607452;39;20314;-64
2023/10/07 10:39:57;;;;;;;6.80;3.58;;;;;;;23.41;53.25;101983.47;3616812;39;20057;-65
2023/10/07 10:42:24;;;;;;;7.88;3.85;;;;;;;23.46;54.13;101972.03;3619673;39;20119;-64
2023/10/07 10:44:52;;;;;;;8.27;3.75;;;;;;;23.54;54.22;101977.63;3615401;39;20049;-64
2023/10/07 10:47:21;;;;;;;5.95;3.20;;;;;;;23.66;54.25;101972.78;3616366;39;20073;-65
2023/10/07 10:49:54;;;;;;;8.68;3.58;;;;;;;23.78;53.80;101975.22;3614336;39;20134;-65
2023/10/07 10:52:21;;;;;;;7.53;3.55;;;;;;;23.86;53.34;101967.06;3616538;39;20210;-65
2023/10/07 10:54:48;;;;;;;6.53;3.22;;;;;;;23.70;52.06;101911.97;3614738;39;20374;-65
2023/10/07 10:57:19;;;;;;;9.18;3.67;;;;;;;24.06;52.33;101972.44;3614006;39;20055;-65
2023/10/07 10:59:48;;;;;;;6.85;3.08;;;;;;;24.18;52.22;101975.84;3617514;39;20062;-64
2023/10/07 11:02:23;;;;;;;6.57;3.75;;;;;;;24.33;52.66;101964.13;3613975;39;20077;-64
2023/10/07 11:04:54;;;;;;;9.52;3.20;;;;;;;24.49;51.31;101965.34;3614308;39;20043;-65
2023/10/07 11:07:22;;;;;;;7.60;3.78;;;;;;;24.53;50.78;101969.50;3614341;39;20058;-64
2023/10/07 11:09:51;;;;;;;7.90;3.47;;;;;;;24.53;50.33;101969.50;3618177;39;20088;-65
2023/10/07 11:12:19;;;;;;;9.55;3.67;;;;;;;24.45;50.41;101967.56;3614186;39;20119;-64
2023/10/07 11:14:49;;;;;;;6.95;3.20;;;;;;;24.57;50.17;101959.03;3616927;39;20050;-64
2023/10/07 11:17:15;;;;;;;8.48;4.07;;;;;;;24.64;50.38;101969.22;3615173;39;20100;-64
2023/10/07 11:19:44;;;;;;;11.98;3.92;;;;;;;24.66;50.25;101961.69;3614401;39;20135;-64
2023/10/07 11:22:18;;;;;;;6.70;3.85;;;;;;;24.70;49.57;101954.00;3613548;39;20390;-65
2023/10/07 11:24:49;;;;;;;7.75;4.78;;;;;;;24.76;49.83;101948.72;3613956;39;20489;-64
2023/10/07 11:27:16;;;;;;;7.07;3.35;;;;;;;24.95;49.63;101949.53;3614946;39;20119;-65
2023/10/07 11:29:43;;;;;;;6.70;2.90;;;;;;;25.08;49.63;101949.94;3615224;39;20355;-65
2023/10/07 11:32:10;;;;;;;8.55;3.88;;;;;;;25.12;48.12;101948.66;3614442;39;20437;-64
2023/10/07 11:34:40;;;;;;;6.50;3.55;;;;;;;25.13;48.20;101952.28;3614121;39;20051;-64
2023/10/07 11:37:14;;;;;;;7.97;3.55;;;;;;;25.10;48.76;101949.81;3613755;39;20054;-64
2023/10/07 11:39:46;;;;;;;10.70;3.45;;;;;;;25.15;49.14;101940.06;3615413;39;20405;-65
2023/10/07 11:42:18;;;;;;;7.63;3.50;;;;;;;25.26;48.45;101938.06;3614352;39;20066;-65
2023/10/07 11:44:52;;;;;;;10.27;3.60;;;;;;;25.40;49.25;101935.53;3614088;39;20058;-67
2023/10/07 11:47:19;;;;;;;7.00;3.30;;;;;;;25.56;48.35;101934.72;3615797;39;20362;-64
2023/10/07 11:49:49;;;;;;;6.28;3.13;;;;;;;25.73;47.47;101935.69;3613463;39;20042;-65
2023/10/07 11:52:21;;;;;;;8.20;3.65;;;;;;;25.64;47.56;101940.28;3616073;39;20073;-64
2023/10/07 11:54:48;;;;;;;7.93;3.25;;;;;;;25.70;46.93;101917.59;3612923;39;20346;-65
2023/10/07 11:57:18;;;;;;;6.85;3.50;;;;;;;25.93;47.68;101944.53;3615889;39;20130;-65
2023/10/07 11:59:44;;;;;;;7.38;3.72;;;;;;;26.03;47.34;101949.91;3614711;39;20076;-64
2023/10/07 12:02:12;;;;;;;5.80;3.20;;;;;;;25.95;46.61;101934.22;3613239;39;20075;-64
2023/10/07 12:04:47;;;;;;;12.77;3.22;;;;;;;26.01;48.10;101941.81;3615079;39;20086;-64
2023/10/07 12:07:14;;;;;;;12.20;3.80;;;;;;;26.29;47.92;101935.97;3613269;39;20047;-65
2023/10/07 12:09:41;;;;;;;13.27;5.35;;;;;;;26.41;46.72;101934.59;3612754;39;20058;-64
2023/10/07 12:12:10;;;;;;;9.30;4.68;;;;;;;26.54;46.03;101946.00;3614006;39;20059;-64
2023/10/07 12:14:36;;;;;;;10.05;3.80;;;;;;;26.56;46.47;101943.94;3619579;39;20086;-64
2023/10/07 12:17:04;;;;;;;9.07;3.85;;;;;;;26.67;45.58;101952.91;3614969;39;20481;-65
2023/10/07 12:19:36;;;;;;;7.35;3.88;;;;;;;26.58;45.10;101960.34;3614424;39;20117;-64
2023/10/07 12:22:06;;;;;;;8.73;3.60;;;;;;;26.60;44.94;101955.50;3617303;39;20433;-64
2023/10/07 12:24:37;;;;;;;6.13;3.75;;;;;;;26.75;44.82;101947.41;3618098;39;20053;-64
2023/10/07 12:27:06;;;;;;;11.02;4.10;;;;;;;26.79;43.96;101938.56;3620077;39;20050;-65
2023/10/07 12:29:32;;;;;;;10.75;3.80;;;;;;;26.69;44.59;101937.06;3614690;39;20054;-64
2023/10/07 12:31:58;;;;;;;6.45;4.03;;;;;;;26.80;44.75;101958.75;3613726;39;20050;-64
2023/10/07 12:34:24;;;;;;;9.10;4.00;;;;;;;26.77;43.80;101946.19;3612581;39;20059;-64
2023/10/07 12:36:53;;;;;;;10.18;4.10;;;;;;;26.90;44.81;101950.31;3606761;39;20354;-65